Weather at Flugplatz Coburg-Steinrücken

Public forecast

Using degrees Celsius for public forecast. Weather courtesy of forecast.io.

Closest aviation weather report (METAR) to Flugplatz Coburg-Steinrücken

Closest report is Hof-Plauen Airport, 33.2 nm (61.5 km) E. Retrieved 2022/06/28 12:50 UTC (24 minutes ago):

EDQM 281250Z 06006KT 350V110 CAVOK 22/06 Q1022

Closest aviation forecast (TAF) to Flugplatz Coburg-Steinrücken

Closest forecast is Nuremberg Airport, 44.1 nm (81.6 km) S. Retrieved 2022/06/28 12:27 UTC (47 minutes ago):

TAF EDDN 281100Z 2812/2912 08006KT CAVOK PROB40 TEMPO 2821/2903 TSRA BKN015 BKN025CB BECMG 2822/2824 36004KT PROB30 TEMPO 2903/2908 BKN012 BECMG 2907/2909 30006KT